Time;durP1;ratioP1;P1;durP2;ratioP2;P2;SDS_P1;SDS_P2;PMS_P1;PMS_P2;Temp;Humidity;BMP_temperature;BMP_pressure;BME280_temperature;BME280_humidity;BME280_pressure;Samples;Min_cycle;Max_cycle;Signal;HPM_P1;HPM_P2
2022/11/06 00:00:18;;;;;;;11.20;5.63;;;5.10;99.90;;;;;;10357598;28;20192;-87
2022/11/06 00:11:21;;;;;;;18.63;8.70;;;5.00;99.90;;;;;;10342569;28;20243;-87
2022/11/06 00:16:43;;;;;;;21.13;10.37;;;4.90;99.90;;;;;;10357076;28;20189;-86
2022/11/06 00:22:05;;;;;;;28.77;12.97;;;4.80;99.90;;;;;;10342781;28;20205;-88
2022/11/06 00:27:27;;;;;;;28.27;13.80;;;4.70;99.90;;;;;;10370276;28;20196;-88
2022/11/06 00:32:47;;;;;;;31.47;15.50;;;4.60;99.90;;;;;;10326558;28;20228;-88
2022/11/06 00:38:09;;;;;;;32.20;16.20;;;4.60;99.90;;;;;;10349999;28;20196;-87
2022/11/06 00:43:31;;;;;;;31.03;14.83;;;4.60;99.90;;;;;;10302427;28;20212;-87
2022/11/06 00:48:54;;;;;;;23.07;12.67;;;4.60;99.90;;;;;;10315844;28;20209;-85
2022/11/06 00:54:15;;;;;;;23.17;10.67;;;4.50;99.90;;;;;;10314972;28;20251;-88
2022/11/06 00:59:36;;;;;;;19.57;10.37;;;4.40;99.90;;;;;;10301485;28;20219;-88
2022/11/06 01:04:57;;;;;;;17.17;10.20;;;4.40;99.90;;;;;;10318379;28;20209;-88
2022/11/06 01:10:18;;;;;;;17.53;9.23;;;4.40;99.90;;;;;;10301101;28;20313;-86
2022/11/06 01:15:40;;;;;;;20.03;10.37;;;4.40;99.90;;;;;;10321920;28;20244;-88
2022/11/06 01:21:14;;;;;;;19.00;10.40;;;4.30;99.90;;;;;;10322717;28;20192;-86
2022/11/06 01:26:36;;;;;;;22.70;11.20;;;4.30;99.90;;;;;;10363640;28;20195;-87
2022/11/06 01:31:58;;;;;;;22.17;11.20;;;;;;;;;;10337707;28;20253;-88
2022/11/06 01:37:20;;;;;;;22.73;10.93;;;;;;;;;;10342984;28;20244;-87
2022/11/06 01:42:42;;;;;;;26.63;11.73;;;;;;;;;;10349048;28;20192;-88
2022/11/06 01:48:04;;;;;;;20.87;10.53;;;;;;;;;;10348951;28;20204;-86
2022/11/06 01:53:26;;;;;;;18.57;10.17;;;4.00;99.90;;;;;;10348411;28;20257;-88
2022/11/06 01:58:51;;;;;;;30.83;14.20;;;4.00;99.90;;;;;;10348284;28;20201;-87
2022/11/06 02:04:19;;;;;;;24.53;12.07;;;3.90;99.90;;;;;;10344063;28;20501;-85
2022/11/06 02:09:40;;;;;;;23.77;11.07;;;4.00;99.90;;;;;;10348235;28;20286;-88
2022/11/06 02:15:15;;;;;;;22.53;11.50;;;4.00;99.90;;;;;;10303705;28;20319;-88
2022/11/06 02:21:05;;;;;;;19.47;9.63;;;4.00;99.90;;;;;;10296931;28;20268;-87
2022/11/06 02:26:50;;;;;;;14.23;8.30;;;4.10;99.90;;;;;;10342365;28;20231;-86
2022/11/06 02:32:24;;;;;;;13.93;7.27;;;4.20;99.90;;;;;;10316722;28;20234;-88
2022/11/06 02:37:47;;;;;;;12.90;7.87;;;4.30;99.90;;;;;;10317814;28;20199;-88
2022/11/06 02:43:09;;;;;;;18.23;9.13;;;4.30;99.90;;;;;;10278402;29;20204;-89
2022/11/06 02:48:38;;;;;;;17.27;9.33;;;4.40;99.90;;;;;;10275211;29;20210;-89
2022/11/06 02:54:03;;;;;;;16.93;10.17;;;4.40;99.90;;;;;;10277686;29;20230;-88
2022/11/06 02:59:48;;;;;;;15.57;8.73;;;4.30;99.90;;;;;;10278182;28;20211;-88
2022/11/06 03:05:32;;;;;;;13.23;8.40;;;4.30;99.90;;;;;;10345369;28;20576;-88
2022/11/06 03:11:20;;;;;;;13.87;9.03;;;4.40;99.90;;;;;;10332126;28;20243;-87
2022/11/06 03:17:02;;;;;;;15.93;8.90;;;4.40;99.90;;;;;;10345216;28;20210;-86
2022/11/06 03:22:33;;;;;;;18.57;10.07;;;4.40;99.90;;;;;;10345139;28;20283;-88
2022/11/06 03:28:06;;;;;;;15.07;8.60;;;4.40;99.90;;;;;;10359320;28;20494;-86
2022/11/06 03:33:36;;;;;;;13.57;8.40;;;4.40;99.90;;;;;;10343823;28;20229;-88
2022/11/06 03:39:31;;;;;;;17.57;10.50;;;4.50;99.90;;;;;;10351746;28;20381;-82
2022/11/06 03:45:02;;;;;;;18.33;9.97;;;4.40;99.90;;;;;;10320644;28;20288;-87
2022/11/06 03:50:36;;;;;;;16.37;8.87;;;4.50;99.90;;;;;;10303390;28;20242;-89
2022/11/06 03:56:04;;;;;;;14.33;8.37;;;4.50;99.90;;;;;;10304154;28;20232;-88
2022/11/06 04:01:30;;;;;;;14.70;8.50;;;4.50;99.90;;;;;;10342731;28;20219;-82
2022/11/06 04:07:21;;;;;;;11.93;7.33;;;4.50;99.90;;;;;;10385999;28;20194;-86
2022/11/06 04:18:27;;;;;;;28.87;17.63;;;4.50;99.90;;;;;;10329838;28;20201;-85
2022/11/06 04:30:03;;;;;;;9.77;6.90;;;4.50;99.90;;;;;;10304853;28;20213;-87
2022/11/06 04:35:33;;;;;;;9.33;6.73;;;4.50;99.90;;;;;;10349301;28;20226;-87
2022/11/06 04:41:01;;;;;;;12.63;9.20;;;4.50;99.90;;;;;;10356309;28;20410;-88
2022/11/06 04:46:31;;;;;;;11.13;8.27;;;4.40;99.90;;;;;;10342116;28;20206;-88
2022/11/06 04:51:55;;;;;;;16.87;9.67;;;4.50;99.90;;;;;;10369601;28;20250;-88
2022/11/06 04:57:16;;;;;;;14.80;8.33;;;4.60;99.90;;;;;;10341543;28;20200;-85
2022/11/06 05:02:37;;;;;;;19.63;10.70;;;4.70;99.90;;;;;;10327416;28;20229;-86
2022/11/06 05:07:58;;;;;;;8.97;6.30;;;4.60;99.90;;;;;;10341639;28;20213;-87
2022/11/06 05:13:20;;;;;;;14.00;9.17;;;4.60;99.90;;;;;;10369184;28;20522;-89
2022/11/06 05:18:41;;;;;;;9.57;6.73;;;4.50;99.90;;;;;;10355042;28;20391;-85
2022/11/06 05:24:02;;;;;;;9.23;5.30;;;4.50;99.90;;;;;;10371390;28;20214;-88
2022/11/06 05:29:23;;;;;;;8.37;5.13;;;4.50;99.90;;;;;;10360633;28;20197;-86
2022/11/06 05:34:45;;;;;;;7.20;4.77;;;4.50;99.90;;;;;;10337031;28;20228;-87
2022/11/06 05:40:07;;;;;;;7.37;4.67;;;4.40;99.90;;;;;;10343576;28;20218;-88
2022/11/06 05:45:52;;;;;;;9.70;5.47;;;4.40;99.90;;;;;;10359755;28;20219;-87
2022/11/06 05:51:16;;;;;;;12.70;10.43;;;4.40;99.90;;;;;;10352715;28;20206;-88
2022/11/06 05:56:37;;;;;;;10.20;8.13;;;4.30;99.90;;;;;;10341825;28;20346;-87
2022/11/06 06:01:58;;;;;;;14.23;10.93;;;4.20;99.90;;;;;;10326634;28;20191;-87
2022/11/06 06:07:19;;;;;;;24.53;19.30;;;4.30;99.90;;;;;;10302917;28;20203;-86
2022/11/06 06:12:41;;;;;;;10.83;8.47;;;4.30;99.90;;;;;;10308295;28;20436;-88
2022/11/06 06:18:03;;;;;;;9.50;6.60;;;4.30;99.90;;;;;;10322231;28;20203;-88
2022/11/06 06:23:24;;;;;;;26.80;16.43;;;4.30;99.90;;;;;;10334663;28;20209;-88
2022/11/06 06:28:48;;;;;;;22.47;15.13;;;4.30;99.90;;;;;;10348454;28;20198;-87
2022/11/06 06:34:09;;;;;;;17.30;11.47;;;4.30;99.90;;;;;;10331582;28;20222;-88
2022/11/06 06:39:30;;;;;;;14.20;9.73;;;4.40;99.90;;;;;;10362047;28;20192;-87
2022/11/06 06:44:51;;;;;;;23.60;13.50;;;4.40;99.90;;;;;;10347280;28;20236;-87
2022/11/06 06:50:12;;;;;;;35.77;20.83;;;4.50;99.90;;;;;;10347004;28;20222;-88
2022/11/06 06:55:33;;;;;;;47.40;28.13;;;4.50;99.90;;;;;;10349263;28;20224;-89
2022/11/06 07:00:59;;;;;;;32.10;21.10;;;4.50;99.90;;;;;;10346361;28;20330;-88
2022/11/06 07:06:20;;;;;;;19.97;13.70;;;4.50;99.90;;;;;;10346710;28;20203;-87
2022/11/06 07:11:42;;;;;;;17.40;11.77;;;4.60;99.90;;;;;;10345970;28;20313;-83
2022/11/06 07:17:03;;;;;;;18.20;11.93;;;4.70;99.90;;;;;;10387490;28;20189;-85
2022/11/06 07:22:27;;;;;;;17.63;11.50;;;4.70;99.90;;;;;;10345378;28;20395;-87
2022/11/06 07:27:52;;;;;;;14.50;9.73;;;4.80;99.90;;;;;;10332461;28;20207;-88
2022/11/06 07:33:13;;;;;;;14.63;9.23;;;4.80;99.90;;;;;;10346593;28;20562;-89
2022/11/06 07:38:36;;;;;;;13.37;9.27;;;4.90;99.90;;;;;;10355228;28;20212;-88
2022/11/06 07:43:57;;;;;;;14.60;9.73;;;5.00;99.90;;;;;;10332419;28;20253;-87
2022/11/06 07:49:19;;;;;;;23.23;11.00;;;5.10;99.90;;;;;;10318166;28;20200;-88
2022/11/06 07:54:40;;;;;;;25.50;16.30;;;5.30;99.90;;;;;;10331627;28;20538;-89
2022/11/06 08:00:03;;;;;;;16.70;12.27;;;5.60;99.90;;;;;;10345434;28;20196;-85
2022/11/06 08:05:32;;;;;;;17.33;10.60;;;6.00;99.90;;;;;;10340623;28;20209;-90
2022/11/06 08:10:53;;;;;;;19.70;13.17;;;6.70;99.90;;;;;;10355331;28;20628;-87
2022/11/06 08:16:15;;;;;;;13.77;7.70;;;7.80;99.90;;;;;;10304452;28;20236;-88
2022/11/06 08:21:38;;;;;;;39.40;18.33;;;;;;;;;;10327425;28;20490;-90
2022/11/06 08:26:59;;;;;;;19.15;10.98;;;;;;;;;;10343212;28;20199;-89
2022/11/06 08:32:20;;;;;;;12.15;8.38;;;11.60;99.90;;;;;;10317339;28;20280;-85
2022/11/06 08:37:42;;;;;;;12.07;8.68;;;11.80;99.90;;;;;;10342571;28;20251;-89
2022/11/06 08:43:07;;;;;;;10.10;7.53;;;11.80;99.90;;;;;;10342629;28;20197;-90
2022/11/06 08:48:31;;;;;;;9.30;6.93;;;11.40;99.90;;;;;;10343529;28;20276;-90
2022/11/06 08:53:59;;;;;;;12.13;8.70;;;10.40;99.90;;;;;;10363248;28;20228;-82
2022/11/06 08:59:20;;;;;;;9.80;6.07;;;9.80;99.90;;;;;;10366468;28;20515;-90
2022/11/06 09:04:41;;;;;;;11.33;7.30;;;9.40;99.90;;;;;;10331569;28;20199;-89
2022/11/06 09:10:03;;;;;;;9.40;6.50;;;9.00;99.90;;;;;;10360433;28;20305;-87
2022/11/06 09:15:26;;;;;;;7.90;5.30;;;8.90;99.90;;;;;;10355577;28;20231;-86
2022/11/06 09:20:47;;;;;;;13.27;6.80;;;8.80;99.90;;;;;;10341423;28;20202;-87
2022/11/06 09:26:08;;;;;;;9.27;5.50;;;8.80;99.90;;;;;;10341070;28;20223;-88
2022/11/06 09:31:30;;;;;;;9.57;6.47;;;8.70;99.90;;;;;;10327880;28;20204;-87
2022/11/06 09:36:51;;;;;;;9.63;5.77;;;8.60;99.90;;;;;;10354307;28;20232;-87
2022/11/06 09:42:24;;;;;;;21.10;10.17;;;8.60;99.90;;;;;;10357624;28;20205;-89
2022/11/06 09:48:09;;;;;;;10.20;5.30;;;8.60;99.90;;;;;;10348853;28;20209;-89
2022/11/06 09:53:37;;;;;;;10.60;5.10;;;8.70;99.90;;;;;;10293875;28;20280;-87
2022/11/06 09:59:03;;;;;;;11.20;5.43;;;8.70;99.90;;;;;;10303587;28;20393;-88
2022/11/06 10:04:34;;;;;;;9.27;5.37;;;8.80;99.90;;;;;;10286790;28;20274;-90
2022/11/06 10:09:58;;;;;;;23.57;11.43;;;8.80;99.90;;;;;;10300980;28;20239;-89
2022/11/06 10:15:24;;;;;;;20.37;5.67;;;8.90;99.90;;;;;;10303477;28;20537;-84
2022/11/06 10:21:02;;;;;;;10.13;5.23;;;9.00;99.90;;;;;;10316089;28;20214;-85
2022/11/06 10:26:53;;;;;;;11.77;6.17;;;9.10;99.90;;;;;;10319124;28;20206;-89
2022/11/06 10:32:38;;;;;;;9.33;5.43;;;9.20;99.90;;;;;;10365875;28;20225;-90
2022/11/06 10:38:12;;;;;;;10.53;5.87;;;9.30;99.90;;;;;;10347009;28;20213;-88
2022/11/06 10:43:47;;;;;;;12.13;6.03;;;9.50;99.90;;;;;;10307004;28;20226;-89
2022/11/06 10:49:35;;;;;;;12.27;6.77;;;9.70;99.90;;;;;;10321358;28;20202;-87
2022/11/06 10:55:14;;;;;;;11.83;4.30;;;10.00;99.90;;;;;;10292460;28;20227;-87
2022/11/06 11:00:38;;;;;;;11.18;4.72;;;11.80;99.90;;;;;;10306066;28;20497;-83
2022/11/06 11:06:03;;;;;;;9.65;4.63;;;;;;;;;;10306007;28;20227;-85
2022/11/06 11:11:28;;;;;;;13.15;5.47;;;;;;;;;;10320820;28;20262;-88
2022/11/06 11:16:53;;;;;;;9.65;5.55;;;16.80;99.90;;;;;;10332432;28;20289;-87
2022/11/06 11:22:20;;;;;;;8.98;4.32;;;;;;;;;;10332033;28;20508;-87
2022/11/06 11:27:44;;;;;;;11.35;7.10;;;18.30;1.00;;;;;;10318687;28;20218;-89
2022/11/06 11:33:12;;;;;;;7.95;4.72;;;18.20;1.00;;;;;;10329408;28;20245;-89
2022/11/06 11:38:41;;;;;;;11.73;5.15;;;18.20;1.00;;;;;;10385056;28;20268;-87
2022/11/06 11:44:16;;;;;;;8.00;4.03;;;18.10;1.00;;;;;;10344782;28;20194;-89
2022/11/06 11:49:41;;;;;;;12.32;6.88;;;18.30;1.00;;;;;;10345247;28;20504;-88
2022/11/06 11:55:04;;;;;;;8.15;4.28;;;18.80;1.00;;;;;;10346851;28;20289;-88
2022/11/06 12:00:28;;;;;;;10.13;5.63;;;18.70;1.00;;;;;;10358815;28;20213;-89
2022/11/06 12:06:04;;;;;;;8.95;4.22;;;19.20;1.00;;;;;;10343834;28;20205;-89
2022/11/06 12:11:29;;;;;;;7.22;3.72;;;18.70;1.00;;;;;;10357440;28;20280;-87
2022/11/06 12:17:13;;;;;;;10.18;4.72;;;18.60;1.00;;;;;;10356650;28;20253;-89
2022/11/06 12:22:42;;;;;;;6.10;3.10;;;18.40;1.00;;;;;;10338306;28;20202;-87
2022/11/06 12:28:15;;;;;;;10.52;3.10;;;18.00;1.00;;;;;;10344075;28;20384;-87
2022/11/06 12:33:39;;;;;;;6.90;3.33;;;17.90;1.00;;;;;;10305728;28;20231;-88
2022/11/06 12:39:28;;;;;;;7.78;3.10;;;18.20;1.00;;;;;;10343582;28;20272;-90
2022/11/06 12:44:51;;;;;;;8.25;3.83;;;17.90;1.00;;;;;;10356717;28;20245;-89
2022/11/06 12:50:38;;;;;;;6.97;3.72;;;18.20;1.00;;;;;;10330486;28;20588;-89
2022/11/06 12:56:19;;;;;;;11.57;4.57;;;18.20;1.00;;;;;;10321592;28;20269;-86
2022/11/06 13:01:57;;;;;;;5.93;3.50;;;;;;;;;;10295805;28;20186;-87
2022/11/06 13:07:19;;;;;;;14.63;5.57;;;15.30;1.00;;;;;;10356278;28;20202;-89
2022/11/06 13:12:49;;;;;;;14.88;6.07;;;14.10;1.00;;;;;;10345801;28;20266;-87
2022/11/06 13:18:15;;;;;;;14.00;5.60;;;;;;;;;;10360547;28;20264;-88
2022/11/06 13:23:49;;;;;;;10.43;4.77;;;12.90;1.00;;;;;;10304528;28;20222;-85
2022/11/06 13:29:16;;;;;;;10.67;4.90;;;12.70;33.00;;;;;;10307891;28;20192;-88
2022/11/06 13:34:42;;;;;;;6.70;4.20;;;12.50;99.90;;;;;;10341814;28;20522;-87
2022/11/06 13:40:09;;;;;;;21.10;5.87;;;;;;;;;;10332704;28;20190;-82
2022/11/06 13:45:42;;;;;;;11.53;5.20;;;11.90;1.00;;;;;;10391160;28;20209;-86
2022/11/06 13:51:28;;;;;;;7.43;4.77;;;11.60;1.00;;;;;;10328246;28;20272;-86
2022/11/06 13:57:31;;;;;;;7.60;4.13;;;11.50;99.90;;;;;;10354885;28;20231;-86
2022/11/06 14:03:14;;;;;;;10.27;4.90;;;11.00;1.00;;;;;;10312964;28;20207;-88
2022/11/06 14:08:48;;;;;;;9.23;4.67;;;10.90;53.60;;;;;;10301003;28;20227;-88
2022/11/06 14:14:17;;;;;;;27.87;14.30;;;10.90;1.00;;;;;;10324170;28;20228;-87
2022/11/06 14:19:48;;;;;;;14.73;7.57;;;10.60;1.00;;;;;;10327988;28;20205;-88
2022/11/06 14:25:27;;;;;;;13.17;7.73;;;10.60;99.90;;;;;;10361920;28;20206;-85
2022/11/06 14:30:50;;;;;;;16.73;8.63;;;;;;;;;;10333466;28;20229;-87
2022/11/06 14:36:34;;;;;;;19.03;9.27;;;;;;;;;;10351581;28;20239;-88
2022/11/06 14:41:58;;;;;;;19.17;10.90;;;;;;;;;;10383395;28;20247;-88
2022/11/06 14:47:33;;;;;;;18.50;12.03;;;;;;;;;;10361255;28;20204;-88
2022/11/06 14:53:04;;;;;;;18.33;9.87;;;;;;;;;;10323285;28;20197;-87
2022/11/06 14:58:49;;;;;;;13.00;7.17;;;10.70;1.00;;;;;;10308004;28;20231;-87
2022/11/06 15:04:18;;;;;;;25.57;11.73;;;9.90;1.00;;;;;;10333947;28;20208;-85
2022/11/06 15:09:44;;;;;;;37.90;21.00;;;9.50;52.00;;;;;;10308544;28;20564;-88
2022/11/06 15:15:16;;;;;;;44.73;24.07;;;9.30;1.00;;;;;;10311148;28;20395;-88
2022/11/06 15:20:40;;;;;;;30.33;14.83;;;9.10;99.90;;;;;;10310005;28;20229;-85
2022/11/06 15:26:24;;;;;;;34.40;15.80;;;8.90;1.00;;;;;;10306737;28;20234;-88
2022/11/06 15:31:52;;;;;;;29.83;16.00;;;8.80;32.30;;;;;;10327084;28;20210;-88
2022/11/06 15:37:22;;;;;;;21.53;12.77;;;8.70;99.90;;;;;;10320689;28;20234;-87
2022/11/06 15:42:46;;;;;;;21.27;13.23;;;;;;;;;;10341324;28;20202;-86
2022/11/06 15:48:20;;;;;;;28.97;18.53;;;;;;;;;;10359567;28;20195;-88
2022/11/06 15:53:45;;;;;;;44.23;24.47;;;;;;;;;;10311417;28;20231;-88
2022/11/06 15:59:13;;;;;;;85.23;43.20;;;;;;;;;;10292409;28;20200;-88
2022/11/06 16:04:37;;;;;;;82.27;43.40;;;;;;;;;;10305298;28;20191;-87
2022/11/06 16:10:03;;;;;;;52.47;28.07;;;;;;;;;;10304792;28;20250;-86
2022/11/06 16:15:47;;;;;;;67.27;32.57;;;;;;;;;;10337353;28;20234;-86
2022/11/06 16:21:20;;;;;;;73.90;32.90;;;;;;;;;;10343571;28;20193;-87
2022/11/06 16:26:46;;;;;;;88.90;37.00;;;;;;;;;;10343466;28;20455;-88
2022/11/06 16:32:20;;;;;;;75.60;32.73;;;;;;;;;;10331676;28;20190;-85
2022/11/06 16:37:44;;;;;;;98.00;36.03;;;;;;;;;;10317011;28;20544;-88
2022/11/06 16:43:13;;;;;;;80.80;31.80;;;;;;;;;;10347471;28;20213;-87
2022/11/06 16:48:45;;;;;;;88.97;35.37;;;;;;;;;;10346401;28;20224;-89
2022/11/06 16:54:11;;;;;;;62.60;29.67;;;;;;;;;;10344651;28;20414;-85
2022/11/06 16:59:36;;;;;;;67.23;34.23;;;;;;;;;;10361923;28;20217;-88
2022/11/06 17:05:06;;;;;;;99.80;47.27;;;;;;;;;;10342874;28;20212;-88
2022/11/06 17:10:37;;;;;;;61.17;39.20;;;;;;;;;;10343527;28;20222;-87
2022/11/06 17:16:02;;;;;;;44.67;25.07;;;;;;;;;;10344224;28;20275;-89
2022/11/06 17:21:28;;;;;;;33.57;20.60;;;;;;;;;;10358245;28;20201;-88
2022/11/06 17:26:52;;;;;;;51.43;26.87;;;;;;;;;;10345208;28;20210;-86
2022/11/06 17:32:15;;;;;;;69.03;32.83;;;;;;;;;;10343752;28;20201;-85
2022/11/06 17:37:41;;;;;;;52.67;28.53;;;;;;;;;;10346603;28;20304;-87
2022/11/06 17:43:05;;;;;;;40.93;20.10;;;;;;;;;;10326534;28;20194;-87
2022/11/06 17:48:35;;;;;;;36.87;16.50;;;;;;;;;;10313632;28;20226;-86
2022/11/06 17:53:59;;;;;;;30.07;17.23;;;;;;;;;;10306553;28;20517;-88
2022/11/06 17:59:25;;;;;;;29.37;17.13;;;;;;;;;;10306189;28;20198;-88
2022/11/06 18:04:50;;;;;;;28.40;16.43;;;7.00;1.00;;;;;;10339846;28;20208;-88
2022/11/06 18:10:13;;;;;;;30.73;18.93;;;7.00;1.00;;;;;;10374498;28;20240;-86
2022/11/06 18:15:38;;;;;;;36.20;19.67;;;6.80;1.00;;;;;;10321747;28;20583;-88
2022/11/06 18:21:02;;;;;;;38.10;19.20;;;6.70;1.00;;;;;;10326305;28;20201;-86
2022/11/06 18:26:25;;;;;;;39.37;21.10;;;6.70;14.00;;;;;;10328460;28;20224;-87
2022/11/06 18:31:49;;;;;;;40.67;24.13;;;6.60;17.20;;;;;;10329883;28;20270;-87
2022/11/06 18:37:13;;;;;;;46.40;25.80;;;6.60;27.90;;;;;;10364841;28;20233;-88
2022/11/06 18:42:37;;;;;;;38.43;22.07;;;6.60;22.40;;;;;;10338455;28;20193;-89
2022/11/06 18:48:06;;;;;;;31.20;16.00;;;6.50;28.00;;;;;;10343112;28;20199;-88
2022/11/06 18:53:30;;;;;;;27.03;17.07;;;6.50;32.90;;;;;;10328817;28;20496;-86
2022/11/06 18:58:53;;;;;;;30.27;16.47;;;6.40;38.30;;;;;;10314326;28;20208;-89
2022/11/06 19:04:17;;;;;;;29.97;17.80;;;6.40;56.80;;;;;;10343519;28;20248;-88
2022/11/06 19:09:41;;;;;;;34.83;21.63;;;6.50;64.10;;;;;;10297156;28;20237;-85
2022/11/06 19:15:04;;;;;;;33.20;17.97;;;6.50;66.90;;;;;;10370158;28;20224;-87
2022/11/06 19:20:28;;;;;;;58.23;26.87;;;6.50;56.90;;;;;;10368848;28;20201;-83
2022/11/06 19:25:53;;;;;;;76.30;38.37;;;6.40;76.50;;;;;;10355873;28;20216;-87
2022/11/06 19:31:31;;;;;;;47.43;24.63;;;6.40;86.30;;;;;;10347396;28;20198;-87
2022/11/06 19:36:55;;;;;;;31.03;18.43;;;6.30;95.50;;;;;;10353732;28;20523;-82
2022/11/06 19:42:20;;;;;;;29.47;17.87;;;6.40;99.90;;;;;;10325368;28;20375;-83
2022/11/06 19:48:01;;;;;;;33.97;21.60;;;6.30;97.70;;;;;;10317981;28;20208;-88
2022/11/06 19:53:27;;;;;;;33.53;22.03;;;6.20;99.90;;;;;;10305155;28;20400;-89
2022/11/06 19:58:52;;;;;;;47.23;28.57;;;6.20;99.90;;;;;;10317431;28;20282;-87
2022/11/06 20:04:15;;;;;;;29.10;21.93;;;6.20;99.90;;;;;;10338260;28;20251;-88
2022/11/06 20:09:40;;;;;;;27.23;18.63;;;6.10;99.90;;;;;;10336716;28;20545;-89
2022/11/06 20:15:07;;;;;;;27.30;17.50;;;6.10;99.90;;;;;;10344723;28;20223;-83
2022/11/06 20:20:31;;;;;;;32.67;17.77;;;6.10;99.90;;;;;;10363270;28;20517;-86
2022/11/06 20:25:58;;;;;;;32.00;19.77;;;6.10;99.90;;;;;;10343967;28;20268;-88
2022/11/06 20:31:22;;;;;;;39.47;23.63;;;6.10;99.90;;;;;;10343604;28;20212;-88
2022/11/06 20:36:45;;;;;;;30.00;19.70;;;6.10;99.90;;;;;;10341945;28;20229;-89
2022/11/06 20:42:08;;;;;;;43.33;22.43;;;6.00;99.90;;;;;;10350965;28;20200;-89
2022/11/06 20:47:31;;;;;;;38.47;21.80;;;6.00;99.90;;;;;;10302905;28;20206;-89
2022/11/06 20:52:55;;;;;;;34.63;19.93;;;6.00;99.90;;;;;;10315844;28;20201;-89
2022/11/06 20:58:18;;;;;;;28.10;16.30;;;6.00;99.90;;;;;;10301995;28;20230;-88
2022/11/06 21:03:41;;;;;;;31.07;18.93;;;6.00;99.90;;;;;;10318178;28;20201;-89
2022/11/06 21:09:07;;;;;;;31.90;18.17;;;6.00;99.90;;;;;;10315048;28;20241;-88
2022/11/06 21:14:32;;;;;;;35.57;19.57;;;6.00;99.90;;;;;;10314581;28;20232;-89
2022/11/06 21:19:55;;;;;;;27.30;17.30;;;6.00;99.90;;;;;;10315738;28;20416;-81
2022/11/06 21:25:19;;;;;;;27.83;16.87;;;6.00;99.90;;;;;;10327976;28;20227;-89
2022/11/06 21:30:47;;;;;;;26.33;16.27;;;5.90;99.90;;;;;;10314785;28;20197;-88
2022/11/06 21:36:13;;;;;;;26.10;17.13;;;5.90;99.90;;;;;;10320387;28;20406;-87
2022/11/06 21:41:39;;;;;;;38.07;21.10;;;5.90;99.90;;;;;;10350165;28;20207;-88
2022/11/06 21:47:02;;;;;;;29.07;17.40;;;5.80;99.90;;;;;;10336180;28;20211;-89
2022/11/06 21:58:14;;;;;;;42.57;23.30;;;5.80;99.90;;;;;;10362459;28;20226;-89
2022/11/06 22:03:38;;;;;;;41.07;22.17;;;5.70;99.90;;;;;;10328493;28;20393;-89
2022/11/06 22:09:02;;;;;;;42.43;23.77;;;5.70;99.90;;;;;;10345252;28;20242;-88
2022/11/06 22:14:26;;;;;;;33.77;21.83;;;5.70;99.90;;;;;;10362041;28;20208;-87
2022/11/06 22:19:51;;;;;;;34.20;20.43;;;5.60;99.90;;;;;;10362203;28;20242;-87
2022/11/06 22:25:15;;;;;;;36.37;20.10;;;5.60;99.90;;;;;;10348111;28;20436;-88
2022/11/06 22:30:38;;;;;;;33.20;18.73;;;5.60;99.90;;;;;;10361623;28;20236;-85
2022/11/06 22:36:12;;;;;;;31.73;18.47;;;5.60;99.90;;;;;;10338855;28;20227;-87
2022/11/06 22:41:36;;;;;;;32.97;16.33;;;5.50;99.90;;;;;;10347205;28;20199;-88
2022/11/06 22:47:00;;;;;;;31.37;17.73;;;5.60;99.90;;;;;;10346587;28;20207;-89
2022/11/06 22:52:23;;;;;;;32.93;16.93;;;5.50;99.90;;;;;;10374444;28;20223;-88
2022/11/06 22:57:46;;;;;;;28.83;15.33;;;5.50;99.90;;;;;;10346679;28;20527;-89
2022/11/06 23:03:09;;;;;;;28.50;16.77;;;5.50;99.90;;;;;;10337860;28;20196;-89
2022/11/06 23:08:33;;;;;;;27.90;15.80;;;5.50;99.90;;;;;;10305703;28;20232;-88
2022/11/06 23:13:59;;;;;;;22.87;14.67;;;5.50;92.30;;;;;;10305945;28;20282;-88
2022/11/06 23:19:30;;;;;;;29.10;14.53;;;5.40;73.90;;;;;;10318969;28;20212;-86
2022/11/06 23:24:53;;;;;;;22.43;14.53;;;5.30;62.60;;;;;;10367361;28;20200;-83
2022/11/06 23:30:17;;;;;;;26.27;16.20;;;5.30;52.50;;;;;;10374198;28;20195;-87
2022/11/06 23:35:40;;;;;;;22.10;14.63;;;5.30;54.20;;;;;;10346319;28;20230;-84
2022/11/06 23:46:51;;;;;;;29.30;14.00;;;5.30;40.80;;;;;;10371386;28;20226;-80
2022/11/06 23:52:14;;;;;;;25.53;13.20;;;5.20;37.60;;;;;;10357758;28;20434;-82
2022/11/06 23:57:38;;;;;;;21.40;11.00;;;5.20;44.10;;;;;;10358139;28;20234;-86
